createdAt,value
2023-01-10T00:03:05.125Z,2.05
2023-01-10T00:06:47.109Z,1.50
2023-01-10T00:10:29.448Z,1.67
2023-01-10T00:14:12.286Z,1.55
2023-01-10T00:17:54.238Z,2.00
2023-01-10T00:21:36.830Z,2.10
2023-01-10T00:25:21.725Z,1.80
2023-01-10T00:29:04.123Z,1.92
2023-01-10T00:32:46.499Z,2.00
2023-01-10T00:36:28.443Z,2.22
2023-01-10T00:40:11.933Z,2.25
2023-01-10T00:43:56.987Z,1.50
2023-01-10T00:47:38.891Z,1.85
2023-01-10T00:51:21.227Z,2.10
2023-01-10T00:55:04.186Z,2.05
2023-01-10T00:58:46.101Z,1.88
2023-01-10T01:02:28.107Z,2.08
2023-01-10T01:06:10.124Z,1.85
2023-01-10T01:10:10.631Z,1.65
2023-01-10T01:13:52.809Z,1.75
2023-01-10T01:17:34.712Z,1.58
2023-01-10T01:21:16.715Z,2.20
2023-01-10T01:24:58.668Z,1.70
2023-01-10T01:28:40.599Z,1.52
2023-01-10T01:32:22.784Z,1.48
2023-01-10T01:36:09.420Z,1.70
2023-01-10T01:39:51.424Z,1.50
2023-01-10T01:44:06.877Z,2.30
2023-01-10T01:48:09.657Z,1.70
2023-01-10T01:51:59.626Z,1.48
2023-01-10T01:55:44.460Z,1.10
2023-01-10T01:59:32.820Z,1.77
2023-01-10T02:03:15.318Z,1.48
2023-01-10T02:06:58.775Z,1.30
2023-01-10T02:10:55.414Z,2.00
2023-01-10T02:14:39.011Z,1.58
2023-01-10T02:18:22.428Z,1.50
2023-01-10T02:22:22.176Z,1.42
2023-01-10T02:26:31.293Z,1.67
2023-01-10T02:31:00.547Z,1.77
2023-01-10T02:34:45.619Z,1.80
2023-01-10T02:38:49.596Z,1.90
2023-01-10T02:42:43.469Z,1.42
2023-01-10T02:46:29.351Z,2.17
2023-01-10T02:50:43.325Z,2.10
2023-01-10T02:54:30.728Z,1.95
2023-01-10T02:58:20.625Z,1.98
2023-01-10T03:02:08.605Z,1.92
2023-01-10T03:06:18.749Z,1.92
2023-01-10T03:10:23.247Z,1.65
2023-01-10T03:14:12.829Z,2.10
2023-01-10T03:17:59.500Z,1.60
2023-01-10T03:21:43.917Z,1.75
2023-01-10T03:25:34.271Z,1.58
2023-01-10T03:29:21.838Z,1.58
2023-01-10T03:33:05.069Z,1.77
2023-01-10T03:37:05.430Z,1.65
2023-01-10T03:40:50.375Z,1.98
2023-01-10T03:44:44.943Z,2.00
2023-01-10T03:48:34.717Z,2.85
2023-01-10T03:52:19.147Z,1.55
2023-01-10T03:56:01.149Z,1.50
2023-01-10T03:59:43.158Z,1.95
2023-01-10T04:03:25.119Z,1.42
2023-01-10T04:07:07.214Z,1.65
2023-01-10T04:10:49.876Z,1.70
2023-01-10T04:14:32.894Z,2.00
2023-01-10T04:18:15.921Z,2.13
2023-01-10T04:21:57.868Z,2.35
2023-01-10T04:25:39.804Z,2.63
2023-01-10T04:29:21.814Z,2.60
2023-01-10T04:33:03.787Z,1.48
2023-01-10T04:36:46.375Z,1.38
2023-01-10T04:40:28.297Z,2.17
2023-01-10T04:44:10.190Z,1.83
2023-01-10T04:47:52.352Z,1.90
2023-01-10T04:51:34.532Z,1.73
2023-01-10T04:55:16.831Z,2.13
2023-01-10T04:58:58.818Z,1.85
2023-01-10T05:02:44.196Z,1.63
2023-01-10T05:06:26.374Z,1.63
2023-01-10T05:10:09.536Z,1.27
2023-01-10T05:13:51.761Z,2.05
2023-01-10T05:17:33.881Z,2.05
2023-01-10T05:21:15.954Z,1.80
2023-01-10T05:24:57.901Z,1.50
2023-01-10T05:28:40.343Z,1.50
2023-01-10T05:32:22.264Z,2.03
2023-01-10T05:36:06.092Z,2.20
2023-01-10T05:39:48.044Z,1.55
2023-01-10T05:43:30.005Z,1.58
2023-01-10T05:47:11.941Z,1.23
2023-01-10T05:50:53.880Z,1.85
2023-01-10T05:54:35.820Z,1.60
2023-01-10T05:58:17.783Z,1.60
2023-01-10T06:01:59.746Z,1.58
2023-01-10T06:05:41.913Z,1.63
2023-01-10T06:09:23.907Z,1.52
2023-01-10T06:13:05.848Z,1.40
2023-01-10T06:16:47.919Z,1.70
2023-01-10T06:20:29.856Z,1.45
2023-01-10T06:24:11.901Z,1.63
2023-01-10T06:27:56.519Z,0.80
2023-01-10T06:31:38.495Z,1.30
2023-01-10T06:35:20.912Z,1.10
2023-01-10T06:39:02.947Z,1.23
2023-01-10T06:42:44.881Z,1.13
2023-01-10T06:46:26.798Z,0.50
2023-01-10T06:50:09.725Z,0.40
2023-01-10T06:53:51.763Z,0.75
2023-01-10T06:57:38.423Z,0.52
2023-01-10T07:01:21.781Z,0.35
2023-01-10T07:05:04.323Z,0.30
2023-01-10T07:08:47.624Z,0.40
2023-01-10T07:12:29.557Z,0.30
2023-01-10T07:16:14.286Z,0.50
2023-01-10T07:19:56.312Z,0.50
2023-01-10T07:23:39.220Z,0.20
2023-01-10T07:27:21.216Z,0.30
2023-01-10T07:31:05.664Z,0.20
2023-01-10T07:34:47.710Z,0.20
2023-01-10T07:38:30.132Z,0.20
2023-01-10T07:42:12.103Z,0.20
2023-01-10T07:45:54.055Z,0.20
2023-01-10T07:49:36.061Z,0.20
2023-01-10T07:53:18.012Z,0.20
2023-01-10T07:56:59.912Z,0.20
2023-01-10T08:00:43.012Z,0.20
2023-01-10T08:04:25.019Z,0.13
2023-01-10T08:08:08.303Z,0.10
2023-01-10T08:11:50.248Z,0.20
2023-01-10T08:15:32.648Z,0.20
2023-01-10T08:19:17.138Z,0.20
2023-01-10T08:23:00.043Z,0.30
2023-01-10T08:26:41.993Z,0.30
2023-01-10T08:30:24.230Z,0.20
2023-01-10T08:34:06.201Z,0.30
2023-01-10T08:37:48.335Z,0.30
2023-01-10T08:41:31.446Z,0.20
2023-01-10T08:45:13.344Z,0.20
2023-01-10T08:48:55.288Z,0.30
2023-01-10T08:52:37.278Z,0.20
2023-01-10T08:56:19.190Z,0.20
2023-01-10T09:00:01.193Z,0.30
2023-01-10T09:03:43.154Z,0.20
2023-01-10T09:07:25.068Z,0.20
2023-01-10T09:11:07.156Z,0.20
2023-01-10T09:14:49.599Z,0.20
2023-01-10T09:18:31.900Z,0.10
2023-01-10T09:22:14.022Z,0.10
2023-01-10T09:25:57.976Z,0.10
2023-01-10T09:29:39.891Z,0.20
2023-01-10T09:33:21.875Z,0.20
2023-01-10T09:37:03.824Z,0.20
2023-01-10T09:41:25.368Z,0.20
2023-01-10T09:45:19.192Z,0.40
2023-01-10T09:49:19.987Z,0.30
2023-01-10T09:53:16.644Z,0.60
2023-01-10T09:57:00.772Z,0.65
2023-01-10T10:00:47.672Z,0.50
2023-01-10T10:04:37.600Z,0.68
2023-01-10T10:08:20.519Z,0.73
2023-01-10T10:12:17.730Z,0.80
2023-01-10T10:20:23.124Z,1.10
2023-01-10T10:24:29.757Z,0.98
2023-01-10T10:28:23.425Z,1.17
2023-01-10T10:33:00.980Z,0.85
2023-01-10T10:36:50.378Z,1.08
2023-01-10T10:40:40.249Z,1.30
2023-01-10T10:44:52.783Z,0.90
2023-01-10T10:48:51.310Z,0.85
2023-01-10T10:52:36.432Z,0.90
2023-01-10T10:56:21.791Z,0.98
2023-01-10T11:00:05.515Z,1.10
2023-01-10T11:03:55.046Z,0.82
2023-01-10T11:07:37.881Z,1.17
2023-01-10T11:11:39.636Z,1.00
2023-01-10T11:15:43.650Z,1.60
2023-01-10T11:19:27.529Z,1.20
2023-01-10T11:23:09.503Z,1.50
2023-01-10T11:26:52.159Z,1.50
2023-01-10T11:30:36.787Z,1.08
2023-01-10T11:34:31.728Z,1.50
2023-01-10T11:38:16.345Z,1.52
2023-01-10T11:42:13.431Z,1.77
2023-01-10T11:49:41.105Z,1.70
2023-01-10T11:53:43.822Z,2.42
2023-01-10T11:57:28.792Z,2.42
2023-01-10T12:01:33.310Z,2.20
2023-01-10T12:05:23.753Z,2.42
2023-01-10T12:09:06.036Z,2.92
2023-01-10T12:12:58.176Z,2.80
2023-01-10T12:16:40.260Z,3.45
2023-01-10T12:20:23.834Z,3.42
2023-01-10T12:24:17.553Z,3.47
2023-01-10T12:28:01.264Z,3.03
2023-01-10T12:31:43.426Z,4.10
2023-01-10T12:35:40.139Z,3.63
2023-01-10T12:39:32.182Z,2.80
2023-01-10T12:43:38.684Z,3.83
2023-01-10T12:47:38.381Z,3.63
2023-01-10T12:51:24.714Z,3.83
2023-01-10T12:55:07.046Z,3.25
2023-01-10T12:59:00.563Z,3.53
2023-01-10T13:02:45.467Z,3.13
2023-01-10T13:06:36.063Z,3.03
2023-01-10T13:10:23.936Z,3.58
2023-01-10T13:14:06.989Z,3.42
2023-01-10T13:17:54.983Z,3.55
2023-01-10T13:21:39.136Z,2.92
2023-01-10T13:25:25.789Z,3.25
2023-01-10T13:29:12.777Z,3.20
2023-01-10T13:33:08.744Z,3.35
2023-01-10T13:36:56.740Z,3.10
2023-01-10T13:40:38.686Z,3.10
2023-01-10T13:44:20.715Z,2.75
2023-01-10T13:48:04.572Z,2.55
2023-01-10T13:52:32.021Z,2.53
2023-01-10T13:56:35.145Z,2.72
2023-01-10T14:01:10.454Z,1.92
2023-01-10T14:04:57.710Z,2.30
2023-01-10T14:08:41.279Z,3.08
2023-01-10T14:12:25.488Z,2.35
2023-01-10T14:16:29.551Z,2.90
2023-01-10T14:20:16.731Z,2.50
2023-01-10T14:23:59.301Z,3.15
2023-01-10T14:27:47.764Z,3.28
2023-01-10T14:31:31.995Z,3.30
2023-01-10T14:35:21.856Z,2.30
2023-01-10T14:39:06.851Z,2.67
2023-01-10T14:42:49.634Z,3.05
2023-01-10T14:46:48.828Z,2.88
2023-01-10T14:50:32.770Z,3.53
2023-01-10T14:54:15.156Z,2.67
2023-01-10T14:57:59.506Z,2.60
2023-01-10T15:01:41.568Z,3.00
2023-01-10T15:05:26.458Z,2.53
2023-01-10T15:09:14.913Z,3.05
2023-01-10T15:13:03.088Z,3.13
2023-01-10T15:16:46.928Z,3.47
2023-01-10T15:20:29.537Z,3.20
2023-01-10T15:24:28.836Z,2.80
2023-01-10T15:28:19.729Z,2.95
2023-01-10T15:32:26.787Z,2.80
2023-01-10T15:36:15.081Z,2.90
2023-01-10T15:39:58.495Z,2.65
2023-01-10T15:43:40.459Z,2.75
2023-01-10T15:47:47.953Z,3.17
2023-01-10T15:55:41.660Z,2.40
2023-01-10T15:59:39.889Z,2.53
2023-01-10T16:03:44.267Z,2.58
2023-01-10T16:07:35.499Z,2.72
2023-01-10T16:11:51.679Z,2.22
2023-01-10T16:15:36.752Z,2.85
2023-01-10T16:19:18.844Z,2.50
2023-01-10T16:23:01.400Z,2.75
2023-01-10T16:26:43.376Z,2.10
2023-01-10T16:30:31.122Z,2.03
2023-01-10T16:34:13.062Z,2.42
2023-01-10T16:37:57.755Z,1.92
2023-01-10T16:41:58.087Z,1.60
2023-01-10T16:45:40.426Z,1.17
2023-01-10T16:49:22.612Z,1.35
2023-01-10T16:53:06.304Z,0.88
2023-01-10T16:56:49.399Z,0.80
2023-01-10T17:00:31.656Z,0.80
2023-01-10T17:04:21.285Z,0.65
2023-01-10T17:08:03.644Z,0.80
2023-01-10T17:11:45.579Z,0.90
2023-01-10T17:15:28.735Z,0.50
2023-01-10T17:19:10.728Z,0.60
2023-01-10T17:22:52.690Z,1.00
2023-01-10T17:26:34.610Z,0.90
2023-01-10T17:30:16.782Z,1.55
2023-01-10T17:33:58.763Z,1.40
2023-01-10T17:37:42.423Z,1.40
2023-01-10T17:41:24.566Z,1.20
2023-01-10T17:45:06.924Z,2.08
2023-01-10T17:48:48.904Z,1.30
2023-01-10T17:52:30.946Z,1.38
2023-01-10T17:56:13.359Z,1.23
2023-01-10T17:59:55.431Z,1.20
2023-01-10T18:03:37.410Z,1.10
2023-01-10T18:07:19.434Z,1.40
2023-01-10T18:11:02.419Z,1.23
2023-01-10T18:14:44.367Z,1.05
2023-01-10T18:18:27.980Z,0.98
2023-01-10T18:22:29.755Z,1.20
2023-01-10T18:26:12.943Z,1.10
2023-01-10T18:29:55.752Z,1.00
2023-01-10T18:33:37.865Z,1.17
2023-01-10T18:37:19.915Z,1.50
2023-01-10T18:41:02.534Z,1.30
2023-01-10T18:44:44.455Z,0.80
2023-01-10T18:48:27.411Z,0.98
2023-01-10T18:52:09.372Z,1.10
2023-01-10T18:55:56.209Z,0.93
2023-01-10T19:03:22.332Z,1.05
2023-01-10T19:07:04.267Z,0.73
2023-01-10T19:11:11.372Z,0.95
2023-01-10T19:14:48.407Z,1.13
2023-01-10T19:18:30.314Z,1.10
2023-01-10T19:22:12.216Z,0.98
2023-01-10T19:25:58.270Z,1.10
2023-01-10T19:29:40.173Z,1.10
2023-01-10T19:33:22.184Z,1.00
2023-01-10T19:37:04.275Z,0.90
2023-01-10T19:40:55.868Z,1.10
2023-01-10T19:44:37.851Z,0.88
2023-01-10T19:48:19.873Z,0.82
2023-01-10T19:52:02.979Z,0.82
2023-01-10T19:55:44.926Z,0.70
2023-01-10T19:59:28.038Z,1.00
2023-01-10T20:03:10.448Z,0.90
2023-01-10T20:06:52.491Z,0.88
2023-01-10T20:10:34.410Z,0.60
2023-01-10T20:14:17.640Z,0.88
2023-01-10T20:17:59.662Z,0.55
2023-01-10T20:21:42.641Z,0.73
2023-01-10T20:25:24.561Z,1.27
2023-01-10T20:29:06.903Z,1.27
2023-01-10T20:32:49.711Z,1.20
2023-01-10T20:36:31.739Z,1.00
2023-01-10T20:40:14.898Z,1.02
2023-01-10T20:43:57.928Z,1.20
2023-01-10T20:47:39.822Z,1.45
2023-01-10T20:51:26.043Z,1.00
2023-01-10T20:55:08.500Z,1.30
2023-01-10T20:58:51.382Z,1.23
2023-01-10T21:02:33.311Z,1.20
2023-01-10T21:06:17.086Z,1.33
2023-01-10T21:09:59.158Z,0.90
2023-01-10T21:13:41.580Z,1.10
2023-01-10T21:17:23.512Z,1.00
2023-01-10T21:21:05.623Z,1.15
2023-01-10T21:24:48.537Z,1.10
2023-01-10T21:28:38.657Z,1.27
2023-01-10T21:32:20.551Z,1.65
2023-01-10T21:36:02.500Z,1.50
2023-01-10T21:39:44.398Z,1.05
2023-01-10T21:43:26.296Z,1.00
2023-01-10T21:47:08.204Z,1.25
2023-01-10T21:50:52.047Z,1.83
2023-01-10T21:54:34.031Z,1.55
2023-01-10T21:58:15.995Z,1.27
2023-01-10T22:01:57.904Z,1.60
2023-01-10T22:05:39.817Z,1.50
2023-01-10T22:09:22.186Z,1.40
2023-01-10T22:13:04.149Z,1.30
2023-01-10T22:16:46.101Z,1.58
2023-01-10T22:20:28.001Z,1.80
2023-01-10T22:24:10.127Z,1.65
2023-01-10T22:27:53.512Z,2.13
2023-01-10T22:31:35.570Z,1.13
2023-01-10T22:35:17.653Z,1.10
2023-01-10T22:38:59.597Z,1.35
2023-01-10T22:42:41.495Z,1.40
2023-01-10T22:46:24.009Z,1.63
2023-01-10T22:50:06.462Z,1.25
2023-01-10T22:53:52.888Z,1.83
2023-01-10T22:57:46.378Z,1.60
2023-01-10T23:01:28.837Z,1.27
2023-01-10T23:05:10.817Z,1.45
2023-01-10T23:08:52.745Z,1.40
2023-01-10T23:12:34.643Z,1.50
2023-01-10T23:16:21.976Z,1.38
2023-01-10T23:20:05.234Z,2.05
2023-01-10T23:23:47.274Z,1.63
2023-01-10T23:27:29.259Z,1.27
2023-01-10T23:31:11.524Z,1.75
2023-01-10T23:34:53.481Z,1.45
2023-01-10T23:38:35.444Z,1.75
2023-01-10T23:42:17.408Z,1.63
2023-01-10T23:45:59.479Z,1.52
2023-01-10T23:49:41.540Z,1.92
2023-01-10T23:53:23.483Z,1.73
2023-01-10T23:57:05.392Z,1.45
